KBWG 201253Z AUTO VRB03KT 10SM CLR 20/13 A3007 RMK AO2 SLP177 T02000133